sensor_id;sensor_type;location;lat;lon;timestamp;pressure;altitude;pressure_sealevel;temperature;humidity
58072;BME280;60383;46.626;18.866;2023-03-14T00:00:53;99735.97;;;7.79;60.04
58072;BME280;60383;46.626;18.866;2023-03-14T00:03:19;99728.78;;;7.78;59.16
58072;BME280;60383;46.626;18.866;2023-03-14T00:05:44;99732.38;;;7.79;59.82
58072;BME280;60383;46.626;18.866;2023-03-14T00:08:10;99734.63;;;7.83;59.01
58072;BME280;60383;46.626;18.866;2023-03-14T00:10:37;99731.31;;;7.72;60.41
58072;BME280;60383;46.626;18.866;2023-03-14T00:13:02;99729.03;;;7.85;59.35
58072;BME280;60383;46.626;18.866;2023-03-14T00:15:28;99723.88;;;7.82;59.11
58072;BME280;60383;46.626;18.866;2023-03-14T00:17:53;99712.34;;;7.70;60.02
58072;BME280;60383;46.626;18.866;2023-03-14T00:20:19;99722.97;;;7.73;59.62
58072;BME280;60383;46.626;18.866;2023-03-14T00:22:44;99733.00;;;7.55;61.12
58072;BME280;60383;46.626;18.866;2023-03-14T00:25:11;99719.69;;;7.51;60.93
58072;BME280;60383;46.626;18.866;2023-03-14T00:27:37;99714.31;;;7.60;60.68
58072;BME280;60383;46.626;18.866;2023-03-14T00:30:04;99717.03;;;7.60;59.46
58072;BME280;60383;46.626;18.866;2023-03-14T00:32:30;99710.34;;;7.72;59.16
58072;BME280;60383;46.626;18.866;2023-03-14T00:34:55;99703.09;;;7.45;59.79
58072;BME280;60383;46.626;18.866;2023-03-14T00:37:21;99700.59;;;7.51;59.93
58072;BME280;60383;46.626;18.866;2023-03-14T00:39:46;99697.34;;;7.48;59.37
58072;BME280;60383;46.626;18.866;2023-03-14T00:42:13;99700.69;;;7.42;59.95
58072;BME280;60383;46.626;18.866;2023-03-14T00:44:38;99697.50;;;7.46;59.87
58072;BME280;60383;46.626;18.866;2023-03-14T00:47:04;99687.91;;;7.60;59.04
58072;BME280;60383;46.626;18.866;2023-03-14T00:49:29;99687.44;;;7.47;59.64
58072;BME280;60383;46.626;18.866;2023-03-14T00:51:55;99678.97;;;7.50;59.21
58072;BME280;60383;46.626;18.866;2023-03-14T00:54:20;99686.03;;;7.25;59.54
58072;BME280;60383;46.626;18.866;2023-03-14T00:56:46;99686.69;;;7.37;58.92
58072;BME280;60383;46.626;18.866;2023-03-14T00:59:12;99674.19;;;7.52;58.72
58072;BME280;60383;46.626;18.866;2023-03-14T01:01:38;99674.22;;;7.34;59.56
58072;BME280;60383;46.626;18.866;2023-03-14T01:04:04;99678.09;;;7.31;59.31
58072;BME280;60383;46.626;18.866;2023-03-14T01:06:30;99666.44;;;7.57;59.06
58072;BME280;60383;46.626;18.866;2023-03-14T01:08:56;99666.44;;;7.39;59.27
58072;BME280;60383;46.626;18.866;2023-03-14T01:11:27;99648.91;;;7.60;58.98
58072;BME280;60383;46.626;18.866;2023-03-14T01:13:54;99650.66;;;7.69;58.72
58072;BME280;60383;46.626;18.866;2023-03-14T01:16:21;99653.72;;;7.66;59.71
58072;BME280;60383;46.626;18.866;2023-03-14T01:18:47;99643.78;;;7.39;59.52
58072;BME280;60383;46.626;18.866;2023-03-14T01:21:19;99639.50;;;7.54;60.28
58072;BME280;60383;46.626;18.866;2023-03-14T01:23:46;99636.84;;;7.44;60.14
58072;BME280;60383;46.626;18.866;2023-03-14T01:26:13;99642.47;;;7.61;60.02
58072;BME280;60383;46.626;18.866;2023-03-14T01:28:40;99634.59;;;7.40;59.57
58072;BME280;60383;46.626;18.866;2023-03-14T01:31:07;99626.03;;;7.53;59.98
58072;BME280;60383;46.626;18.866;2023-03-14T01:33:33;99618.63;;;7.45;60.03
58072;BME280;60383;46.626;18.866;2023-03-14T01:35:59;99617.94;;;7.43;60.48
58072;BME280;60383;46.626;18.866;2023-03-14T01:38:28;99613.41;;;7.51;59.77
58072;BME280;60383;46.626;18.866;2023-03-14T01:40:53;99609.19;;;7.75;59.30
58072;BME280;60383;46.626;18.866;2023-03-14T01:43:19;99607.31;;;7.76;59.01
58072;BME280;60383;46.626;18.866;2023-03-14T01:48:26;99598.66;;;7.80;59.68
58072;BME280;60383;46.626;18.866;2023-03-14T01:50:53;99597.94;;;7.78;60.62
58072;BME280;60383;46.626;18.866;2023-03-14T01:53:19;99594.69;;;7.75;60.63
58072;BME280;60383;46.626;18.866;2023-03-14T01:55:50;99589.41;;;7.73;61.25
58072;BME280;60383;46.626;18.866;2023-03-14T01:58:18;99585.19;;;7.16;63.71
58072;BME280;60383;46.626;18.866;2023-03-14T02:00:45;99565.44;;;7.59;61.67
58072;BME280;60383;46.626;18.866;2023-03-14T02:03:14;99567.09;;;7.51;61.66
58072;BME280;60383;46.626;18.866;2023-03-14T02:05:42;99564.59;;;7.58;60.38
58072;BME280;60383;46.626;18.866;2023-03-14T02:08:15;99547.75;;;7.63;60.46
58072;BME280;60383;46.626;18.866;2023-03-14T02:10:44;99557.34;;;7.67;60.48
58072;BME280;60383;46.626;18.866;2023-03-14T02:13:11;99556.72;;;7.55;60.99
58072;BME280;60383;46.626;18.866;2023-03-14T02:15:38;99553.69;;;7.58;61.22
58072;BME280;60383;46.626;18.866;2023-03-14T02:18:05;99555.88;;;7.55;62.30
58072;BME280;60383;46.626;18.866;2023-03-14T02:23:06;99539.25;;;7.40;62.66
58072;BME280;60383;46.626;18.866;2023-03-14T02:25:42;99546.97;;;7.26;61.71
58072;BME280;60383;46.626;18.866;2023-03-14T02:28:11;99557.09;;;7.34;62.42
58072;BME280;60383;46.626;18.866;2023-03-14T02:30:37;99555.69;;;7.30;62.00
58072;BME280;60383;46.626;18.866;2023-03-14T02:33:08;99551.03;;;7.22;62.84
58072;BME280;60383;46.626;18.866;2023-03-14T02:35:41;99554.59;;;7.23;62.84
58072;BME280;60383;46.626;18.866;2023-03-14T02:40:40;99533.59;;;7.33;62.77
58072;BME280;60383;46.626;18.866;2023-03-14T02:43:05;99533.22;;;7.10;63.16
58072;BME280;60383;46.626;18.866;2023-03-14T02:48:01;99521.91;;;7.23;63.13
58072;BME280;60383;46.626;18.866;2023-03-14T02:50:30;99522.00;;;7.31;62.86
58072;BME280;60383;46.626;18.866;2023-03-14T02:52:58;99502.84;;;7.23;63.38
58072;BME280;60383;46.626;18.866;2023-03-14T02:55:24;99502.25;;;7.11;63.43
58072;BME280;60383;46.626;18.866;2023-03-14T02:57:52;99500.38;;;7.29;63.39
58072;BME280;60383;46.626;18.866;2023-03-14T03:00:17;99494.97;;;7.38;62.69
58072;BME280;60383;46.626;18.866;2023-03-14T03:02:43;99498.31;;;7.31;62.67
58072;BME280;60383;46.626;18.866;2023-03-14T03:05:08;99490.47;;;7.28;63.21
58072;BME280;60383;46.626;18.866;2023-03-14T03:07:34;99491.19;;;7.30;62.90
58072;BME280;60383;46.626;18.866;2023-03-14T03:09:59;99490.63;;;7.53;61.78
58072;BME280;60383;46.626;18.866;2023-03-14T03:12:25;99481.19;;;7.39;62.58
58072;BME280;60383;46.626;18.866;2023-03-14T03:14:50;99494.34;;;7.44;62.77
58072;BME280;60383;46.626;18.866;2023-03-14T03:17:16;99495.13;;;7.36;63.39
58072;BME280;60383;46.626;18.866;2023-03-14T03:19:42;99493.94;;;7.39;62.91
58072;BME280;60383;46.626;18.866;2023-03-14T03:22:07;99483.75;;;7.41;63.59
58072;BME280;60383;46.626;18.866;2023-03-14T03:24:33;99493.91;;;7.57;62.47
58072;BME280;60383;46.626;18.866;2023-03-14T03:26:58;99493.00;;;7.48;62.06
58072;BME280;60383;46.626;18.866;2023-03-14T03:29:24;99478.66;;;7.72;60.62
58072;BME280;60383;46.626;18.866;2023-03-14T03:31:49;99473.63;;;7.86;60.66
58072;BME280;60383;46.626;18.866;2023-03-14T03:34:15;99470.72;;;7.87;60.21
58072;BME280;60383;46.626;18.866;2023-03-14T03:36:40;99451.50;;;7.89;59.57
58072;BME280;60383;46.626;18.866;2023-03-14T03:39:06;99447.41;;;7.93;60.47
58072;BME280;60383;46.626;18.866;2023-03-14T03:41:32;99434.47;;;7.95;59.83
58072;BME280;60383;46.626;18.866;2023-03-14T03:43:58;99426.94;;;7.89;60.08
58072;BME280;60383;46.626;18.866;2023-03-14T03:46:23;99432.59;;;7.95;59.92
58072;BME280;60383;46.626;18.866;2023-03-14T03:48:57;99426.34;;;7.68;61.35
58072;BME280;60383;46.626;18.866;2023-03-14T03:51:24;99425.25;;;7.53;61.06
58072;BME280;60383;46.626;18.866;2023-03-14T03:53:49;99418.56;;;7.82;60.71
58072;BME280;60383;46.626;18.866;2023-03-14T03:56:15;99437.34;;;7.85;60.70
58072;BME280;60383;46.626;18.866;2023-03-14T03:58:40;99429.28;;;7.83;61.30
58072;BME280;60383;46.626;18.866;2023-03-14T04:01:07;99429.28;;;7.83;60.59
58072;BME280;60383;46.626;18.866;2023-03-14T04:03:33;99412.03;;;7.66;61.19
58072;BME280;60383;46.626;18.866;2023-03-14T04:06:00;99414.63;;;7.76;61.28
58072;BME280;60383;46.626;18.866;2023-03-14T04:08:27;99424.34;;;7.79;60.37
58072;BME280;60383;46.626;18.866;2023-03-14T04:10:57;99405.75;;;7.74;60.84
58072;BME280;60383;46.626;18.866;2023-03-14T04:13:23;99413.47;;;7.87;60.46
58072;BME280;60383;46.626;18.866;2023-03-14T04:15:49;99414.16;;;7.89;60.54
58072;BME280;60383;46.626;18.866;2023-03-14T04:18:14;99419.09;;;7.86;59.89
58072;BME280;60383;46.626;18.866;2023-03-14T04:20:40;99403.41;;;7.79;60.79
58072;BME280;60383;46.626;18.866;2023-03-14T04:23:05;99411.59;;;7.88;59.95
58072;BME280;60383;46.626;18.866;2023-03-14T04:25:31;99406.34;;;7.94;59.29
58072;BME280;60383;46.626;18.866;2023-03-14T04:27:56;99400.88;;;7.94;59.70
58072;BME280;60383;46.626;18.866;2023-03-14T04:30:21;99404.47;;;7.95;59.84
58072;BME280;60383;46.626;18.866;2023-03-14T04:32:47;99411.25;;;7.91;59.87
58072;BME280;60383;46.626;18.866;2023-03-14T04:35:13;99416.03;;;7.89;59.88
58072;BME280;60383;46.626;18.866;2023-03-14T04:37:38;99409.03;;;7.78;60.67
58072;BME280;60383;46.626;18.866;2023-03-14T04:40:04;99407.50;;;7.83;60.42
58072;BME280;60383;46.626;18.866;2023-03-14T04:42:32;99400.84;;;7.86;59.78
58072;BME280;60383;46.626;18.866;2023-03-14T04:44:57;99402.03;;;7.75;60.38
58072;BME280;60383;46.626;18.866;2023-03-14T04:47:23;99399.84;;;7.87;60.24
58072;BME280;60383;46.626;18.866;2023-03-14T04:49:48;99409.38;;;7.83;60.52
58072;BME280;60383;46.626;18.866;2023-03-14T04:52:13;99412.59;;;7.78;60.96
58072;BME280;60383;46.626;18.866;2023-03-14T04:54:39;99405.59;;;7.76;61.98
58072;BME280;60383;46.626;18.866;2023-03-14T04:57:04;99403.88;;;7.75;62.15
58072;BME280;60383;46.626;18.866;2023-03-14T04:59:30;99406.94;;;7.72;62.09
58072;BME280;60383;46.626;18.866;2023-03-14T05:01:55;99400.97;;;7.76;62.49
58072;BME280;60383;46.626;18.866;2023-03-14T05:04:21;99408.63;;;7.64;62.93
58072;BME280;60383;46.626;18.866;2023-03-14T05:06:46;99411.22;;;7.74;62.78
58072;BME280;60383;46.626;18.866;2023-03-14T05:09:11;99396.44;;;7.85;62.34
58072;BME280;60383;46.626;18.866;2023-03-14T05:11:37;99400.06;;;7.59;61.87
58072;BME280;60383;46.626;18.866;2023-03-14T05:14:03;99398.66;;;7.81;61.47
58072;BME280;60383;46.626;18.866;2023-03-14T05:16:28;99406.81;;;7.81;62.32
58072;BME280;60383;46.626;18.866;2023-03-14T05:18:54;99396.50;;;7.59;63.54
58072;BME280;60383;46.626;18.866;2023-03-14T05:21:19;99396.38;;;7.68;63.34
58072;BME280;60383;46.626;18.866;2023-03-14T05:23:45;99395.66;;;7.66;63.93
58072;BME280;60383;46.626;18.866;2023-03-14T05:26:10;99394.66;;;7.67;63.44
58072;BME280;60383;46.626;18.866;2023-03-14T05:28:35;99383.56;;;7.69;63.20
58072;BME280;60383;46.626;18.866;2023-03-14T05:31:06;99391.22;;;7.65;63.85
58072;BME280;60383;46.626;18.866;2023-03-14T05:33:31;99386.13;;;7.62;64.21
58072;BME280;60383;46.626;18.866;2023-03-14T05:35:57;99381.19;;;7.66;63.71
58072;BME280;60383;46.626;18.866;2023-03-14T05:38:22;99379.84;;;7.62;65.01
58072;BME280;60383;46.626;18.866;2023-03-14T05:40:48;99381.72;;;7.70;63.62
58072;BME280;60383;46.626;18.866;2023-03-14T05:43:13;99383.09;;;7.74;63.49
58072;BME280;60383;46.626;18.866;2023-03-14T05:45:40;99387.88;;;7.72;63.01
58072;BME280;60383;46.626;18.866;2023-03-14T05:48:06;99384.81;;;7.75;63.15
58072;BME280;60383;46.626;18.866;2023-03-14T05:50:32;99382.56;;;7.62;63.16
58072;BME280;60383;46.626;18.866;2023-03-14T05:52:57;99369.50;;;7.82;61.46
58072;BME280;60383;46.626;18.866;2023-03-14T05:55:23;99377.34;;;7.85;60.67
58072;BME280;60383;46.626;18.866;2023-03-14T05:57:48;99369.69;;;7.97;60.36
58072;BME280;60383;46.626;18.866;2023-03-14T06:00:14;99367.84;;;7.97;59.50
58072;BME280;60383;46.626;18.866;2023-03-14T06:02:39;99360.06;;;8.19;59.07
58072;BME280;60383;46.626;18.866;2023-03-14T06:05:05;99368.06;;;8.21;59.29
58072;BME280;60383;46.626;18.866;2023-03-14T06:07:31;99390.56;;;8.31;59.97
58072;BME280;60383;46.626;18.866;2023-03-14T06:09:56;99372.16;;;8.25;59.81
58072;BME280;60383;46.626;18.866;2023-03-14T06:12:23;99375.41;;;8.37;59.68
58072;BME280;60383;46.626;18.866;2023-03-14T06:14:49;99374.06;;;8.49;59.02
58072;BME280;60383;46.626;18.866;2023-03-14T06:17:14;99375.28;;;8.55;59.25
58072;BME280;60383;46.626;18.866;2023-03-14T06:19:40;99372.06;;;8.59;59.36
58072;BME280;60383;46.626;18.866;2023-03-14T06:22:05;99367.75;;;8.65;59.74
58072;BME280;60383;46.626;18.866;2023-03-14T06:24:31;99375.94;;;8.73;59.66
58072;BME280;60383;46.626;18.866;2023-03-14T06:26:56;99364.72;;;8.76;59.62
58072;BME280;60383;46.626;18.866;2023-03-14T06:29:22;99364.72;;;8.76;59.32
58072;BME280;60383;46.626;18.866;2023-03-14T06:31:47;99364.72;;;8.85;59.34
58072;BME280;60383;46.626;18.866;2023-03-14T06:34:13;99361.28;;;8.83;59.81
58072;BME280;60383;46.626;18.866;2023-03-14T06:36:39;99365.38;;;8.87;59.67
58072;BME280;60383;46.626;18.866;2023-03-14T06:39:04;99369.47;;;8.83;59.58
58072;BME280;60383;46.626;18.866;2023-03-14T06:41:30;99379.53;;;8.90;59.01
58072;BME280;60383;46.626;18.866;2023-03-14T06:43:55;99391.44;;;9.22;58.54
58072;BME280;60383;46.626;18.866;2023-03-14T06:46:21;99391.19;;;9.49;57.49
58072;BME280;60383;46.626;18.866;2023-03-14T06:48:46;99392.56;;;9.53;56.25
58072;BME280;60383;46.626;18.866;2023-03-14T06:51:12;99400.91;;;9.51;56.74
58072;BME280;60383;46.626;18.866;2023-03-14T06:53:37;99399.50;;;10.03;55.17
58072;BME280;60383;46.626;18.866;2023-03-14T06:56:03;99396.31;;;10.23;54.53
58072;BME280;60383;46.626;18.866;2023-03-14T06:58:28;99393.41;;;10.25;53.26
58072;BME280;60383;46.626;18.866;2023-03-14T07:00:54;99390.53;;;10.49;53.08
58072;BME280;60383;46.626;18.866;2023-03-14T07:03:20;99391.47;;;10.33;53.25
58072;BME280;60383;46.626;18.866;2023-03-14T07:05:45;99398.19;;;10.77;52.67
58072;BME280;60383;46.626;18.866;2023-03-14T07:08:11;99391.44;;;11.03;51.24
58072;BME280;60383;46.626;18.866;2023-03-14T07:10:36;99387.47;;;11.06;50.73
58072;BME280;60383;46.626;18.866;2023-03-14T07:13:02;99385.34;;;11.31;50.70
58072;BME280;60383;46.626;18.866;2023-03-14T07:15:27;99386.28;;;10.85;51.35
58072;BME280;60383;46.626;18.866;2023-03-14T07:17:53;99384.50;;;10.92;52.46
58072;BME280;60383;46.626;18.866;2023-03-14T07:20:18;99385.69;;;11.13;51.76
58072;BME280;60383;46.626;18.866;2023-03-14T07:22:44;99385.34;;;11.16;51.28
58072;BME280;60383;46.626;18.866;2023-03-14T07:25:11;99391.38;;;11.71;50.04
58072;BME280;60383;46.626;18.866;2023-03-14T07:27:37;99384.59;;;11.37;49.86
58072;BME280;60383;46.626;18.866;2023-03-14T07:30:03;99381.84;;;11.67;50.50
58072;BME280;60383;46.626;18.866;2023-03-14T07:32:29;99381.50;;;11.70;49.78
58072;BME280;60383;46.626;18.866;2023-03-14T07:34:54;99378.31;;;11.88;48.74
58072;BME280;60383;46.626;18.866;2023-03-14T07:37:20;99379.69;;;12.29;48.98
58072;BME280;60383;46.626;18.866;2023-03-14T07:39:45;99372.72;;;12.48;47.93
58072;BME280;60383;46.626;18.866;2023-03-14T07:42:11;99381.72;;;12.05;48.19
58072;BME280;60383;46.626;18.866;2023-03-14T07:44:36;99384.28;;;12.65;47.65
58072;BME280;60383;46.626;18.866;2023-03-14T07:47:02;99373.13;;;12.73;47.92
58072;BME280;60383;46.626;18.866;2023-03-14T07:49:27;99383.06;;;12.96;46.79
58072;BME280;60383;46.626;18.866;2023-03-14T07:51:53;99377.81;;;13.01;46.62
58072;BME280;60383;46.626;18.866;2023-03-14T07:54:18;99374.34;;;13.14;45.91
58072;BME280;60383;46.626;18.866;2023-03-14T07:56:44;99362.56;;;13.55;46.76
58072;BME280;60383;46.626;18.866;2023-03-14T07:59:09;99371.94;;;13.68;46.50
58072;BME280;60383;46.626;18.866;2023-03-14T08:01:36;99371.25;;;13.94;45.65
58072;BME280;60383;46.626;18.866;2023-03-14T08:04:01;99371.25;;;13.94;44.35
58072;BME280;60383;46.626;18.866;2023-03-14T08:06:27;99368.38;;;14.22;43.85
58072;BME280;60383;46.626;18.866;2023-03-14T08:08:52;99364.84;;;13.87;45.22
58072;BME280;60383;46.626;18.866;2023-03-14T08:11:18;99358.41;;;14.21;45.33
58072;BME280;60383;46.626;18.866;2023-03-14T08:13:43;99362.84;;;14.22;44.01
58072;BME280;60383;46.626;18.866;2023-03-14T08:16:15;99355.66;;;14.21;44.04
58072;BME280;60383;46.626;18.866;2023-03-14T08:18:41;99356.34;;;14.44;43.61
58072;BME280;60383;46.626;18.866;2023-03-14T08:21:06;99346.38;;;14.29;44.72
58072;BME280;60383;46.626;18.866;2023-03-14T08:23:32;99350.03;;;14.63;43.66
58072;BME280;60383;46.626;18.866;2023-03-14T08:25:57;99338.59;;;14.66;43.22
58072;BME280;60383;46.626;18.866;2023-03-14T08:28:23;99345.59;;;15.02;43.06
58072;BME280;60383;46.626;18.866;2023-03-14T08:30:48;99333.66;;;15.36;43.12
58072;BME280;60383;46.626;18.866;2023-03-14T08:33:14;99343.22;;;15.33;41.28
58072;BME280;60383;46.626;18.866;2023-03-14T08:35:39;99339.97;;;15.63;41.24
58072;BME280;60383;46.626;18.866;2023-03-14T08:38:05;99350.16;;;15.69;40.92
58072;BME280;60383;46.626;18.866;2023-03-14T08:40:30;99348.25;;;15.56;41.61
58072;BME280;60383;46.626;18.866;2023-03-14T08:42:56;99351.03;;;15.56;40.96
58072;BME280;60383;46.626;18.866;2023-03-14T08:45:21;99353.13;;;15.68;41.58
58072;BME280;60383;46.626;18.866;2023-03-14T08:47:46;99340.56;;;15.85;41.57
58072;BME280;60383;46.626;18.866;2023-03-14T08:50:13;99340.78;;;15.84;40.60
58072;BME280;60383;46.626;18.866;2023-03-14T08:52:38;99325.34;;;16.15;40.71
58072;BME280;60383;46.626;18.866;2023-03-14T08:55:06;99333.59;;;16.21;40.38
58072;BME280;60383;46.626;18.866;2023-03-14T08:57:32;99323.91;;;16.44;39.76
58072;BME280;60383;46.626;18.866;2023-03-14T08:59:58;99325.47;;;16.26;40.23
58072;BME280;60383;46.626;18.866;2023-03-14T09:02:25;99319.06;;;16.33;41.00
58072;BME280;60383;46.626;18.866;2023-03-14T09:04:51;99312.84;;;16.44;40.79
58072;BME280;60383;46.626;18.866;2023-03-14T09:07:17;99312.41;;;16.72;39.94
58072;BME280;60383;46.626;18.866;2023-03-14T09:09:43;99306.53;;;16.87;39.75
58072;BME280;60383;46.626;18.866;2023-03-14T09:12:08;99300.41;;;17.11;39.60
58072;BME280;60383;46.626;18.866;2023-03-14T09:14:34;99296.44;;;17.00;39.46
58072;BME280;60383;46.626;18.866;2023-03-14T09:17:00;99285.50;;;17.12;39.16
58072;BME280;60383;46.626;18.866;2023-03-14T09:19:25;99281.91;;;17.48;39.60
58072;BME280;60383;46.626;18.866;2023-03-14T09:21:51;99277.38;;;17.35;39.56
58072;BME280;60383;46.626;18.866;2023-03-14T09:24:17;99263.38;;;17.30;40.66
58072;BME280;60383;46.626;18.866;2023-03-14T09:26:43;99255.16;;;17.42;40.06
58072;BME280;60383;46.626;18.866;2023-03-14T09:29:08;99253.13;;;16.93;39.66
58072;BME280;60383;46.626;18.866;2023-03-14T09:31:34;99249.25;;;17.57;38.90
58072;BME280;60383;46.626;18.866;2023-03-14T09:34:00;99240.19;;;17.99;38.00
58072;BME280;60383;46.626;18.866;2023-03-14T09:36:26;99242.44;;;18.20;37.34
58072;BME280;60383;46.626;18.866;2023-03-14T09:38:51;99244.03;;;18.40;38.17
58072;BME280;60383;46.626;18.866;2023-03-14T09:41:30;99246.28;;;18.19;37.72
58072;BME280;60383;46.626;18.866;2023-03-14T09:44:15;99240.41;;;18.28;37.92
58072;BME280;60383;46.626;18.866;2023-03-14T09:46:45;99230.19;;;18.52;37.96
58072;BME280;60383;46.626;18.866;2023-03-14T09:49:26;99232.28;;;17.65;39.08
58072;BME280;60383;46.626;18.866;2023-03-14T09:51:54;99218.66;;;18.01;38.24
58072;BME280;60383;46.626;18.866;2023-03-14T09:56:57;99205.16;;;17.86;37.29
58072;BME280;60383;46.626;18.866;2023-03-14T09:59:23;99207.56;;;18.01;36.92
58072;BME280;60383;46.626;18.866;2023-03-14T10:01:49;99189.13;;;18.07;36.82
58072;BME280;60383;46.626;18.866;2023-03-14T10:04:17;99188.25;;;18.72;35.90
58072;BME280;60383;46.626;18.866;2023-03-14T10:06:46;99180.38;;;18.33;36.39
58072;BME280;60383;46.626;18.866;2023-03-14T10:09:20;99187.97;;;18.26;37.71
58072;BME280;60383;46.626;18.866;2023-03-14T10:11:52;99179.69;;;18.86;35.29
58072;BME280;60383;46.626;18.866;2023-03-14T10:14:35;99176.28;;;19.19;35.02
58072;BME280;60383;46.626;18.866;2023-03-14T10:17:08;99188.25;;;18.84;34.66
58072;BME280;60383;46.626;18.866;2023-03-14T10:19:35;99167.88;;;18.90;35.49
58072;BME280;60383;46.626;18.866;2023-03-14T10:22:04;99179.22;;;18.89;35.09
58072;BME280;60383;46.626;18.866;2023-03-14T10:24:34;99158.56;;;18.84;35.00
58072;BME280;60383;46.626;18.866;2023-03-14T10:27:03;99150.53;;;18.95;34.57
58072;BME280;60383;46.626;18.866;2023-03-14T10:29:33;99147.88;;;18.76;36.88
58072;BME280;60383;46.626;18.866;2023-03-14T10:32:06;99138.13;;;19.38;35.56
58072;BME280;60383;46.626;18.866;2023-03-14T10:34:37;99136.19;;;19.68;33.86
58072;BME280;60383;46.626;18.866;2023-03-14T10:39:50;99142.59;;;18.63;34.33
58072;BME280;60383;46.626;18.866;2023-03-14T10:42:24;99134.84;;;18.77;35.08
58072;BME280;60383;46.626;18.866;2023-03-14T10:45:29;99139.22;;;19.25;34.68
58072;BME280;60383;46.626;18.866;2023-03-14T10:47:59;99135.56;;;18.96;34.43
58072;BME280;60383;46.626;18.866;2023-03-14T10:50:30;99129.22;;;19.82;33.50
58072;BME280;60383;46.626;18.866;2023-03-14T10:52:57;99123.53;;;19.89;32.48
58072;BME280;60383;46.626;18.866;2023-03-14T10:55:26;99123.97;;;20.15;33.31
58072;BME280;60383;46.626;18.866;2023-03-14T10:57:51;99128.75;;;20.02;32.98
58072;BME280;60383;46.626;18.866;2023-03-14T11:00:22;99122.44;;;19.90;32.67
58072;BME280;60383;46.626;18.866;2023-03-14T11:05:44;99104.81;;;19.84;33.38
58072;BME280;60383;46.626;18.866;2023-03-14T11:08:24;99104.16;;;19.19;33.55
58072;BME280;60383;46.626;18.866;2023-03-14T11:11:42;99091.44;;;19.52;32.99
58072;BME280;60383;46.626;18.866;2023-03-14T11:14:21;99086.28;;;19.44;33.45
58072;BME280;60383;46.626;18.866;2023-03-14T11:19:48;99087.38;;;19.43;33.78
58072;BME280;60383;46.626;18.866;2023-03-14T11:22:34;99089.38;;;19.30;32.93
58072;BME280;60383;46.626;18.866;2023-03-14T11:25:14;99082.66;;;19.26;32.94
58072;BME280;60383;46.626;18.866;2023-03-14T11:30:38;99067.13;;;19.42;32.23
58072;BME280;60383;46.626;18.866;2023-03-14T11:33:18;99061.03;;;20.25;32.17
58072;BME280;60383;46.626;18.866;2023-03-14T11:41:04;99055.66;;;20.58;31.98
58072;BME280;60383;46.626;18.866;2023-03-14T11:43:47;99055.06;;;20.56;31.13
58072;BME280;60383;46.626;18.866;2023-03-14T11:46:21;99047.31;;;20.58;31.32
58072;BME280;60383;46.626;18.866;2023-03-14T11:49:08;99055.41;;;20.59;30.72
58072;BME280;60383;46.626;18.866;2023-03-14T11:51:40;99037.97;;;20.25;30.72
58072;BME280;60383;46.626;18.866;2023-03-14T11:54:25;99024.97;;;20.48;31.88
58072;BME280;60383;46.626;18.866;2023-03-14T11:56:58;99030.06;;;20.17;31.84
58072;BME280;60383;46.626;18.866;2023-03-14T11:59:41;99015.53;;;19.46;32.19
58072;BME280;60383;46.626;18.866;2023-03-14T12:10:16;99004.59;;;19.86;31.74
58072;BME280;60383;46.626;18.866;2023-03-14T12:12:42;99010.97;;;19.86;31.41
58072;BME280;60383;46.626;18.866;2023-03-14T12:15:18;98997.72;;;19.76;31.78
58072;BME280;60383;46.626;18.866;2023-03-14T12:17:44;98995.91;;;19.82;31.71
58072;BME280;60383;46.626;18.866;2023-03-14T12:23:04;98982.72;;;19.26;32.33
58072;BME280;60383;46.626;18.866;2023-03-14T12:25:32;98968.34;;;19.80;31.49
58072;BME280;60383;46.626;18.866;2023-03-14T12:30:42;98968.22;;;19.07;32.50
58072;BME280;60383;46.626;18.866;2023-03-14T12:36:01;98973.25;;;18.93;33.05
58072;BME280;60383;46.626;18.866;2023-03-14T12:41:35;98963.91;;;19.28;32.49
58072;BME280;60383;46.626;18.866;2023-03-14T12:47:41;98948.66;;;18.85;33.99
58072;BME280;60383;46.626;18.866;2023-03-14T12:49:40;98947.94;;;19.36;33.45
58072;BME280;60383;46.626;18.866;2023-03-14T12:52:18;98948.16;;;19.34;32.49
58072;BME280;60383;46.626;18.866;2023-03-14T13:00:11;98939.34;;;19.20;32.55
58072;BME280;60383;46.626;18.866;2023-03-14T13:02:42;98935.53;;;18.80;33.03
58072;BME280;60383;46.626;18.866;2023-03-14T13:05:22;98931.88;;;18.92;34.01
58072;BME280;60383;46.626;18.866;2023-03-14T13:13:02;98941.41;;;18.14;36.00
58072;BME280;60383;46.626;18.866;2023-03-14T13:15:35;98945.09;;;18.32;35.55
58072;BME280;60383;46.626;18.866;2023-03-14T13:18:11;98935.59;;;18.16;35.77
58072;BME280;60383;46.626;18.866;2023-03-14T13:20:45;98930.81;;;17.87;36.72
58072;BME280;60383;46.626;18.866;2023-03-14T13:23:32;98932.72;;;18.11;37.14
58072;BME280;60383;46.626;18.866;2023-03-14T13:26:00;98934.06;;;17.61;38.06
58072;BME280;60383;46.626;18.866;2023-03-14T13:28:27;98927.56;;;17.67;38.22
58072;BME280;60383;46.626;18.866;2023-03-14T13:31:01;98921.88;;;17.62;38.35
58072;BME280;60383;46.626;18.866;2023-03-14T13:33:26;98928.66;;;17.78;38.39
58072;BME280;60383;46.626;18.866;2023-03-14T13:35:57;98928.53;;;17.61;38.75
58072;BME280;60383;46.626;18.866;2023-03-14T13:38:27;98919.97;;;17.50;39.03
58072;BME280;60383;46.626;18.866;2023-03-14T13:40:55;98925.72;;;17.84;38.50
58072;BME280;60383;46.626;18.866;2023-03-14T13:46:02;98917.06;;;17.33;39.17
58072;BME280;60383;46.626;18.866;2023-03-14T13:48:30;98919.91;;;17.27;39.71
58072;BME280;60383;46.626;18.866;2023-03-14T13:50:59;98929.47;;;17.43;39.37
58072;BME280;60383;46.626;18.866;2023-03-14T13:53:26;98921.28;;;17.36;39.11
58072;BME280;60383;46.626;18.866;2023-03-14T13:55:52;98919.56;;;17.11;40.09
58072;BME280;60383;46.626;18.866;2023-03-14T13:58:24;98912.34;;;17.34;39.57
58072;BME280;60383;46.626;18.866;2023-03-14T14:00:58;98913.53;;;17.14;39.90
58072;BME280;60383;46.626;18.866;2023-03-14T14:03:25;98915.13;;;17.22;39.40